sensor_id;sensor_type;location;lat;lon;timestamp;temperature;humidity
6357;DHT22;3211;53.452;-2.264;2022-09-20T00:00:22;14.40;99.90
6357;DHT22;3211;53.452;-2.264;2022-09-20T00:03:06;14.40;99.90
6357;DHT22;3211;53.452;-2.264;2022-09-20T00:05:48;14.40;99.90
6357;DHT22;3211;53.452;-2.264;2022-09-20T00:08:30;14.40;99.90
6357;DHT22;3211;53.452;-2.264;2022-09-20T00:11:14;14.40;99.90
6357;DHT22;3211;53.452;-2.264;2022-09-20T00:13:58;14.40;99.90
6357;DHT22;3211;53.452;-2.264;2022-09-20T00:16:41;14.30;99.90
6357;DHT22;3211;53.452;-2.264;2022-09-20T00:19:24;14.30;99.90
6357;DHT22;3211;53.452;-2.264;2022-09-20T00:22:06;14.20;99.90
6357;DHT22;3211;53.452;-2.264;2022-09-20T00:24:48;14.30;99.90
6357;DHT22;3211;53.452;-2.264;2022-09-20T00:27:30;14.30;99.90
6357;DHT22;3211;53.452;-2.264;2022-09-20T00:30:12;14.30;99.90
6357;DHT22;3211;53.452;-2.264;2022-09-20T00:32:55;14.30;99.90
6357;DHT22;3211;53.452;-2.264;2022-09-20T00:35:38;14.30;99.90
6357;DHT22;3211;53.452;-2.264;2022-09-20T00:38:22;14.30;99.90
6357;DHT22;3211;53.452;-2.264;2022-09-20T00:41:04;14.30;99.90
6357;DHT22;3211;53.452;-2.264;2022-09-20T00:43:46;14.30;99.90
6357;DHT22;3211;53.452;-2.264;2022-09-20T00:46:32;14.30;99.90
6357;DHT22;3211;53.452;-2.264;2022-09-20T00:49:21;14.30;99.90
6357;DHT22;3211;53.452;-2.264;2022-09-20T00:52:05;14.30;99.90
6357;DHT22;3211;53.452;-2.264;2022-09-20T00:54:48;14.30;99.90
6357;DHT22;3211;53.452;-2.264;2022-09-20T00:57:29;14.30;99.90
6357;DHT22;3211;53.452;-2.264;2022-09-20T01:00:15;14.30;99.90
6357;DHT22;3211;53.452;-2.264;2022-09-20T01:03:02;14.30;99.90
6357;DHT22;3211;53.452;-2.264;2022-09-20T01:05:46;14.30;99.90
6357;DHT22;3211;53.452;-2.264;2022-09-20T01:08:31;14.30;99.90
6357;DHT22;3211;53.452;-2.264;2022-09-20T01:11:14;14.30;99.90
6357;DHT22;3211;53.452;-2.264;2022-09-20T01:13:56;14.30;99.90
6357;DHT22;3211;53.452;-2.264;2022-09-20T01:16:38;14.30;99.90
6357;DHT22;3211;53.452;-2.264;2022-09-20T01:19:28;14.30;99.90
6357;DHT22;3211;53.452;-2.264;2022-09-20T01:22:20;14.20;99.90
6357;DHT22;3211;53.452;-2.264;2022-09-20T01:25:09;14.20;99.90
6357;DHT22;3211;53.452;-2.264;2022-09-20T01:27:54;14.20;99.90
6357;DHT22;3211;53.452;-2.264;2022-09-20T01:30:40;14.20;99.90
6357;DHT22;3211;53.452;-2.264;2022-09-20T01:33:28;14.20;99.90
6357;DHT22;3211;53.452;-2.264;2022-09-20T01:36:15;14.10;99.90
6357;DHT22;3211;53.452;-2.264;2022-09-20T01:39:06;14.10;99.90
6357;DHT22;3211;53.452;-2.264;2022-09-20T01:41:53;14.10;99.90
6357;DHT22;3211;53.452;-2.264;2022-09-20T01:44:43;14.10;99.90
6357;DHT22;3211;53.452;-2.264;2022-09-20T01:47:33;14.10;99.90
6357;DHT22;3211;53.452;-2.264;2022-09-20T01:50:28;14.10;99.90
6357;DHT22;3211;53.452;-2.264;2022-09-20T01:57:02;14.10;99.90
6357;DHT22;3211;53.452;-2.264;2022-09-20T02:00:08;14.10;99.90
6357;DHT22;3211;53.452;-2.264;2022-09-20T02:03:22;14.10;99.90
6357;DHT22;3211;53.452;-2.264;2022-09-20T02:06:26;14.10;99.90
6357;DHT22;3211;53.452;-2.264;2022-09-20T02:09:36;14.10;99.90
6357;DHT22;3211;53.452;-2.264;2022-09-20T02:19:23;14.10;99.90
6357;DHT22;3211;53.452;-2.264;2022-09-20T02:22:40;14.10;99.90
6357;DHT22;3211;53.452;-2.264;2022-09-20T02:25:35;14.00;99.90
6357;DHT22;3211;53.452;-2.264;2022-09-20T02:28:26;14.00;99.90
6357;DHT22;3211;53.452;-2.264;2022-09-20T02:31:17;14.00;99.90
6357;DHT22;3211;53.452;-2.264;2022-09-20T02:34:43;14.00;99.90
6357;DHT22;3211;53.452;-2.264;2022-09-20T02:37:49;14.00;99.90
6357;DHT22;3211;53.452;-2.264;2022-09-20T02:40:50;14.00;99.90
6357;DHT22;3211;53.452;-2.264;2022-09-20T02:43:43;14.00;99.90
6357;DHT22;3211;53.452;-2.264;2022-09-20T02:46:31;14.00;99.90
6357;DHT22;3211;53.452;-2.264;2022-09-20T02:49:22;14.00;99.90
6357;DHT22;3211;53.452;-2.264;2022-09-20T02:52:14;13.90;99.90
6357;DHT22;3211;53.452;-2.264;2022-09-20T02:55:04;13.90;99.90
6357;DHT22;3211;53.452;-2.264;2022-09-20T02:57:54;13.90;99.90
6357;DHT22;3211;53.452;-2.264;2022-09-20T03:00:43;13.80;99.90
6357;DHT22;3211;53.452;-2.264;2022-09-20T03:03:37;13.80;99.90
6357;DHT22;3211;53.452;-2.264;2022-09-20T03:06:29;13.80;99.90
6357;DHT22;3211;53.452;-2.264;2022-09-20T03:09:18;13.80;99.90
6357;DHT22;3211;53.452;-2.264;2022-09-20T03:12:16;13.80;99.90
6357;DHT22;3211;53.452;-2.264;2022-09-20T03:15:09;13.80;99.90
6357;DHT22;3211;53.452;-2.264;2022-09-20T03:18:05;13.80;99.90
6357;DHT22;3211;53.452;-2.264;2022-09-20T03:20:55;13.80;99.90
6357;DHT22;3211;53.452;-2.264;2022-09-20T03:23:50;13.80;99.90
6357;DHT22;3211;53.452;-2.264;2022-09-20T03:26:46;13.80;99.90
6357;DHT22;3211;53.452;-2.264;2022-09-20T03:29:41;13.80;99.90
6357;DHT22;3211;53.452;-2.264;2022-09-20T03:32:41;13.80;99.90
6357;DHT22;3211;53.452;-2.264;2022-09-20T03:35:42;13.70;99.90
6357;DHT22;3211;53.452;-2.264;2022-09-20T03:38:44;13.70;99.90
6357;DHT22;3211;53.452;-2.264;2022-09-20T03:41:47;13.70;99.90
6357;DHT22;3211;53.452;-2.264;2022-09-20T03:44:48;13.60;99.90
6357;DHT22;3211;53.452;-2.264;2022-09-20T03:47:50;13.60;99.90
6357;DHT22;3211;53.452;-2.264;2022-09-20T03:50:44;13.60;99.90
6357;DHT22;3211;53.452;-2.264;2022-09-20T04:00:21;13.50;99.90
6357;DHT22;3211;53.452;-2.264;2022-09-20T04:06:21;13.50;99.90
6357;DHT22;3211;53.452;-2.264;2022-09-20T04:09:50;13.60;99.90
6357;DHT22;3211;53.452;-2.264;2022-09-20T04:12:44;13.60;99.90
6357;DHT22;3211;53.452;-2.264;2022-09-20T04:15:36;13.60;99.90
6357;DHT22;3211;53.452;-2.264;2022-09-20T04:18:27;13.60;99.90
6357;DHT22;3211;53.452;-2.264;2022-09-20T04:21:16;13.60;99.90
6357;DHT22;3211;53.452;-2.264;2022-09-20T04:24:08;13.70;99.90
6357;DHT22;3211;53.452;-2.264;2022-09-20T04:26:57;13.70;99.90
6357;DHT22;3211;53.452;-2.264;2022-09-20T04:29:43;13.70;99.90
6357;DHT22;3211;53.452;-2.264;2022-09-20T04:32:31;13.70;99.90
6357;DHT22;3211;53.452;-2.264;2022-09-20T04:35:27;13.70;99.90
6357;DHT22;3211;53.452;-2.264;2022-09-20T04:38:29;13.70;99.90
6357;DHT22;3211;53.452;-2.264;2022-09-20T04:41:20;13.70;99.90
6357;DHT22;3211;53.452;-2.264;2022-09-20T04:44:25;13.70;99.90
6357;DHT22;3211;53.452;-2.264;2022-09-20T04:47:40;13.60;99.90
6357;DHT22;3211;53.452;-2.264;2022-09-20T04:50:45;13.70;99.90
6357;DHT22;3211;53.452;-2.264;2022-09-20T04:54:02;13.70;99.90
6357;DHT22;3211;53.452;-2.264;2022-09-20T04:57:08;13.70;99.90
6357;DHT22;3211;53.452;-2.264;2022-09-20T05:00:04;13.70;99.90
6357;DHT22;3211;53.452;-2.264;2022-09-20T05:07:00;13.70;99.90
6357;DHT22;3211;53.452;-2.264;2022-09-20T05:10:08;13.80;99.90
6357;DHT22;3211;53.452;-2.264;2022-09-20T05:13:12;13.90;99.90
6357;DHT22;3211;53.452;-2.264;2022-09-20T05:16:01;13.70;99.90
6357;DHT22;3211;53.452;-2.264;2022-09-20T05:25:24;13.70;99.90
6357;DHT22;3211;53.452;-2.264;2022-09-20T05:28:11;13.70;99.90
6357;DHT22;3211;53.452;-2.264;2022-09-20T05:33:34;13.70;99.90
6357;DHT22;3211;53.452;-2.264;2022-09-20T05:36:25;13.70;99.90
6357;DHT22;3211;53.452;-2.264;2022-09-20T05:39:25;13.60;99.90
6357;DHT22;3211;53.452;-2.264;2022-09-20T05:42:16;13.60;99.90
6357;DHT22;3211;53.452;-2.264;2022-09-20T05:45:16;13.60;99.90
6357;DHT22;3211;53.452;-2.264;2022-09-20T05:48:08;13.60;99.90
6357;DHT22;3211;53.452;-2.264;2022-09-20T05:50:58;13.60;99.90
6357;DHT22;3211;53.452;-2.264;2022-09-20T05:54:03;13.60;99.90
6357;DHT22;3211;53.452;-2.264;2022-09-20T05:56:54;13.60;99.90
6357;DHT22;3211;53.452;-2.264;2022-09-20T05:59:51;13.60;99.90
6357;DHT22;3211;53.452;-2.264;2022-09-20T06:02:43;13.60;99.90
6357;DHT22;3211;53.452;-2.264;2022-09-20T06:05:32;13.60;99.90
6357;DHT22;3211;53.452;-2.264;2022-09-20T06:08:41;13.60;99.90
6357;DHT22;3211;53.452;-2.264;2022-09-20T06:11:46;13.50;99.90
6357;DHT22;3211;53.452;-2.264;2022-09-20T06:14:40;13.50;99.90
6357;DHT22;3211;53.452;-2.264;2022-09-20T06:17:29;13.50;99.90
6357;DHT22;3211;53.452;-2.264;2022-09-20T06:20:19;13.50;99.90
6357;DHT22;3211;53.452;-2.264;2022-09-20T06:23:05;13.60;99.90
6357;DHT22;3211;53.452;-2.264;2022-09-20T06:25:51;13.50;99.90
6357;DHT22;3211;53.452;-2.264;2022-09-20T06:28:38;13.60;99.90
6357;DHT22;3211;53.452;-2.264;2022-09-20T06:31:22;13.70;99.90
6357;DHT22;3211;53.452;-2.264;2022-09-20T06:34:06;13.70;99.90
6357;DHT22;3211;53.452;-2.264;2022-09-20T06:36:55;13.70;99.90
6357;DHT22;3211;53.452;-2.264;2022-09-20T06:40:05;13.90;99.90
6357;DHT22;3211;53.452;-2.264;2022-09-20T06:43:13;13.90;99.90
6357;DHT22;3211;53.452;-2.264;2022-09-20T06:45:55;13.90;99.90
6357;DHT22;3211;53.452;-2.264;2022-09-20T06:48:37;13.90;99.90
6357;DHT22;3211;53.452;-2.264;2022-09-20T06:51:19;13.90;99.90
6357;DHT22;3211;53.452;-2.264;2022-09-20T06:54:03;13.80;99.90
6357;DHT22;3211;53.452;-2.264;2022-09-20T06:56:46;13.70;99.90
6357;DHT22;3211;53.452;-2.264;2022-09-20T06:59:30;13.80;99.90
6357;DHT22;3211;53.452;-2.264;2022-09-20T07:02:12;13.90;99.90
6357;DHT22;3211;53.452;-2.264;2022-09-20T07:04:54;14.00;99.90
6357;DHT22;3211;53.452;-2.264;2022-09-20T07:07:37;14.00;99.90
6357;DHT22;3211;53.452;-2.264;2022-09-20T07:10:18;14.00;99.90
6357;DHT22;3211;53.452;-2.264;2022-09-20T07:13:01;14.00;99.90
6357;DHT22;3211;53.452;-2.264;2022-09-20T07:15:44;14.00;99.90
6357;DHT22;3211;53.452;-2.264;2022-09-20T07:18:26;13.90;99.90
6357;DHT22;3211;53.452;-2.264;2022-09-20T07:21:10;13.90;99.90
6357;DHT22;3211;53.452;-2.264;2022-09-20T07:23:53;13.90;99.90
6357;DHT22;3211;53.452;-2.264;2022-09-20T07:26:35;14.00;99.90
6357;DHT22;3211;53.452;-2.264;2022-09-20T07:29:18;13.90;99.90
6357;DHT22;3211;53.452;-2.264;2022-09-20T07:32:02;14.00;99.90
6357;DHT22;3211;53.452;-2.264;2022-09-20T07:34:44;14.00;99.90
6357;DHT22;3211;53.452;-2.264;2022-09-20T07:37:26;14.00;99.90
6357;DHT22;3211;53.452;-2.264;2022-09-20T07:40:10;14.10;99.90
6357;DHT22;3211;53.452;-2.264;2022-09-20T07:42:52;14.10;99.90
6357;DHT22;3211;53.452;-2.264;2022-09-20T07:45:35;14.10;99.90
6357;DHT22;3211;53.452;-2.264;2022-09-20T07:48:20;14.10;99.90
6357;DHT22;3211;53.452;-2.264;2022-09-20T07:51:07;14.10;99.90
6357;DHT22;3211;53.452;-2.264;2022-09-20T07:53:53;14.20;99.90
6357;DHT22;3211;53.452;-2.264;2022-09-20T07:56:35;14.20;99.90
6357;DHT22;3211;53.452;-2.264;2022-09-20T07:59:17;14.30;99.90
6357;DHT22;3211;53.452;-2.264;2022-09-20T08:01:59;14.30;99.90
6357;DHT22;3211;53.452;-2.264;2022-09-20T08:04:43;14.40;99.90
6357;DHT22;3211;53.452;-2.264;2022-09-20T08:07:25;14.50;99.90
6357;DHT22;3211;53.452;-2.264;2022-09-20T08:10:07;14.40;99.90
6357;DHT22;3211;53.452;-2.264;2022-09-20T08:12:49;14.30;99.90
6357;DHT22;3211;53.452;-2.264;2022-09-20T08:15:31;14.40;99.90
6357;DHT22;3211;53.452;-2.264;2022-09-20T08:18:13;14.40;99.90
6357;DHT22;3211;53.452;-2.264;2022-09-20T08:21:03;14.40;99.90
6357;DHT22;3211;53.452;-2.264;2022-09-20T08:23:46;14.40;99.90
6357;DHT22;3211;53.452;-2.264;2022-09-20T08:26:29;14.50;99.90
6357;DHT22;3211;53.452;-2.264;2022-09-20T08:29:12;14.50;99.90
6357;DHT22;3211;53.452;-2.264;2022-09-20T08:31:54;14.40;99.90
6357;DHT22;3211;53.452;-2.264;2022-09-20T08:34:37;14.30;99.90
6357;DHT22;3211;53.452;-2.264;2022-09-20T08:37:21;14.40;99.90
6357;DHT22;3211;53.452;-2.264;2022-09-20T08:40:04;14.30;99.90
6357;DHT22;3211;53.452;-2.264;2022-09-20T08:42:46;14.40;99.90
6357;DHT22;3211;53.452;-2.264;2022-09-20T08:45:28;14.40;99.90
6357;DHT22;3211;53.452;-2.264;2022-09-20T08:48:15;14.50;99.90
6357;DHT22;3211;53.452;-2.264;2022-09-20T08:50:57;14.60;99.90
6357;DHT22;3211;53.452;-2.264;2022-09-20T08:53:43;14.50;99.90
6357;DHT22;3211;53.452;-2.264;2022-09-20T08:56:28;14.50;99.90
6357;DHT22;3211;53.452;-2.264;2022-09-20T08:59:15;14.50;99.90
6357;DHT22;3211;53.452;-2.264;2022-09-20T09:01:58;14.50;99.90
6357;DHT22;3211;53.452;-2.264;2022-09-20T09:04:41;14.50;99.90
6357;DHT22;3211;53.452;-2.264;2022-09-20T09:07:24;14.50;99.90
6357;DHT22;3211;53.452;-2.264;2022-09-20T09:10:09;14.60;99.90
6357;DHT22;3211;53.452;-2.264;2022-09-20T09:12:51;14.50;99.90
6357;DHT22;3211;53.452;-2.264;2022-09-20T09:15:34;14.50;99.90
6357;DHT22;3211;53.452;-2.264;2022-09-20T09:18:17;14.50;99.90
6357;DHT22;3211;53.452;-2.264;2022-09-20T09:21:00;14.40;99.90
6357;DHT22;3211;53.452;-2.264;2022-09-20T09:23:50;14.40;99.90
6357;DHT22;3211;53.452;-2.264;2022-09-20T09:26:37;14.50;99.90
6357;DHT22;3211;53.452;-2.264;2022-09-20T09:29:20;14.60;99.90
6357;DHT22;3211;53.452;-2.264;2022-09-20T09:32:21;14.60;99.90
6357;DHT22;3211;53.452;-2.264;2022-09-20T09:35:22;14.50;99.90
6357;DHT22;3211;53.452;-2.264;2022-09-20T09:38:10;14.60;99.90
6357;DHT22;3211;53.452;-2.264;2022-09-20T09:40:58;14.70;99.90
6357;DHT22;3211;53.452;-2.264;2022-09-20T09:43:42;14.70;99.90
6357;DHT22;3211;53.452;-2.264;2022-09-20T09:46:25;14.70;99.90
6357;DHT22;3211;53.452;-2.264;2022-09-20T09:49:13;14.80;99.90
6357;DHT22;3211;53.452;-2.264;2022-09-20T09:52:02;14.80;99.90
6357;DHT22;3211;53.452;-2.264;2022-09-20T09:54:47;14.80;99.90
6357;DHT22;3211;53.452;-2.264;2022-09-20T09:57:41;14.90;99.90
6357;DHT22;3211;53.452;-2.264;2022-09-20T10:00:29;14.90;99.90
6357;DHT22;3211;53.452;-2.264;2022-09-20T10:03:27;14.90;99.90
6357;DHT22;3211;53.452;-2.264;2022-09-20T10:06:19;14.90;99.90
6357;DHT22;3211;53.452;-2.264;2022-09-20T10:09:22;14.90;99.90
6357;DHT22;3211;53.452;-2.264;2022-09-20T10:12:15;14.90;99.90
6357;DHT22;3211;53.452;-2.264;2022-09-20T10:15:12;15.00;99.90
6357;DHT22;3211;53.452;-2.264;2022-09-20T10:18:10;15.10;99.90
6357;DHT22;3211;53.452;-2.264;2022-09-20T10:21:05;15.10;99.90
6357;DHT22;3211;53.452;-2.264;2022-09-20T10:24:00;15.20;99.90
6357;DHT22;3211;53.452;-2.264;2022-09-20T10:27:04;15.20;99.90
6357;DHT22;3211;53.452;-2.264;2022-09-20T10:30:02;15.30;99.90
6357;DHT22;3211;53.452;-2.264;2022-09-20T10:32:55;15.50;99.90
6357;DHT22;3211;53.452;-2.264;2022-09-20T10:35:54;15.70;99.90
6357;DHT22;3211;53.452;-2.264;2022-09-20T10:38:44;15.70;99.90
6357;DHT22;3211;53.452;-2.264;2022-09-20T10:41:40;15.80;99.90
6357;DHT22;3211;53.452;-2.264;2022-09-20T10:44:54;15.80;99.90
6357;DHT22;3211;53.452;-2.264;2022-09-20T10:47:41;15.90;99.90
6357;DHT22;3211;53.452;-2.264;2022-09-20T10:50:32;15.80;99.90
6357;DHT22;3211;53.452;-2.264;2022-09-20T10:53:28;15.90;99.90
6357;DHT22;3211;53.452;-2.264;2022-09-20T10:56:23;16.00;99.90
6357;DHT22;3211;53.452;-2.264;2022-09-20T10:59:19;16.00;99.90
6357;DHT22;3211;53.452;-2.264;2022-09-20T11:02:19;16.00;99.90
6357;DHT22;3211;53.452;-2.264;2022-09-20T11:05:22;16.10;99.90
6357;DHT22;3211;53.452;-2.264;2022-09-20T11:08:10;16.10;99.90
6357;DHT22;3211;53.452;-2.264;2022-09-20T11:10:57;15.90;99.90
6357;DHT22;3211;53.452;-2.264;2022-09-20T11:13:46;15.80;99.90
6357;DHT22;3211;53.452;-2.264;2022-09-20T11:16:35;15.80;99.90
6357;DHT22;3211;53.452;-2.264;2022-09-20T11:19:25;15.80;99.90
6357;DHT22;3211;53.452;-2.264;2022-09-20T11:22:15;15.80;99.90
6357;DHT22;3211;53.452;-2.264;2022-09-20T11:25:03;15.90;99.90
6357;DHT22;3211;53.452;-2.264;2022-09-20T11:27:50;15.70;99.90
6357;DHT22;3211;53.452;-2.264;2022-09-20T11:30:39;15.80;99.90
6357;DHT22;3211;53.452;-2.264;2022-09-20T11:33:24;15.80;99.90
6357;DHT22;3211;53.452;-2.264;2022-09-20T11:36:12;15.80;99.90
6357;DHT22;3211;53.452;-2.264;2022-09-20T11:38:59;15.80;99.90
6357;DHT22;3211;53.452;-2.264;2022-09-20T11:41:43;15.80;99.90
6357;DHT22;3211;53.452;-2.264;2022-09-20T11:44:28;15.70;99.90
6357;DHT22;3211;53.452;-2.264;2022-09-20T11:47:15;15.60;99.90
6357;DHT22;3211;53.452;-2.264;2022-09-20T11:50:09;15.60;99.90
6357;DHT22;3211;53.452;-2.264;2022-09-20T11:53:05;15.60;99.90
6357;DHT22;3211;53.452;-2.264;2022-09-20T11:55:56;15.60;99.90
6357;DHT22;3211;53.452;-2.264;2022-09-20T11:58:44;15.70;99.90
6357;DHT22;3211;53.452;-2.264;2022-09-20T12:01:31;15.70;99.90
6357;DHT22;3211;53.452;-2.264;2022-09-20T12:04:20;15.50;99.90
6357;DHT22;3211;53.452;-2.264;2022-09-20T12:07:15;15.60;99.90
6357;DHT22;3211;53.452;-2.264;2022-09-20T12:10:00;15.60;99.90
6357;DHT22;3211;53.452;-2.264;2022-09-20T12:12:45;15.60;99.90
6357;DHT22;3211;53.452;-2.264;2022-09-20T12:15:30;15.60;99.90
6357;DHT22;3211;53.452;-2.264;2022-09-20T12:18:28;15.60;99.90
6357;DHT22;3211;53.452;-2.264;2022-09-20T12:21:14;15.70;99.90
6357;DHT22;3211;53.452;-2.264;2022-09-20T12:24:16;15.90;99.90
6357;DHT22;3211;53.452;-2.264;2022-09-20T12:27:00;15.90;99.90
6357;DHT22;3211;53.452;-2.264;2022-09-20T12:30:04;16.10;99.90
6357;DHT22;3211;53.452;-2.264;2022-09-20T12:32:54;16.40;99.90
6357;DHT22;3211;53.452;-2.264;2022-09-20T13:04:51;17.30;99.90
6357;DHT22;3211;53.452;-2.264;2022-09-20T13:07:39;17.40;99.90
6357;DHT22;3211;53.452;-2.264;2022-09-20T13:10:32;17.50;99.90
6357;DHT22;3211;53.452;-2.264;2022-09-20T13:13:29;17.50;99.90
6357;DHT22;3211;53.452;-2.264;2022-09-20T13:16:19;17.60;99.90
6357;DHT22;3211;53.452;-2.264;2022-09-20T13:19:05;17.50;99.90
6357;DHT22;3211;53.452;-2.264;2022-09-20T13:21:54;17.30;99.90
6357;DHT22;3211;53.452;-2.264;2022-09-20T13:24:40;17.40;99.90
6357;DHT22;3211;53.452;-2.264;2022-09-20T13:27:26;17.30;99.90
6357;DHT22;3211;53.452;-2.264;2022-09-20T13:30:17;17.30;99.90
6357;DHT22;3211;53.452;-2.264;2022-09-20T13:33:15;17.30;99.90
6357;DHT22;3211;53.452;-2.264;2022-09-20T13:35:57;17.40;99.90
6357;DHT22;3211;53.452;-2.264;2022-09-20T13:38:41;17.40;99.90
6357;DHT22;3211;53.452;-2.264;2022-09-20T13:41:27;17.50;99.90
6357;DHT22;3211;53.452;-2.264;2022-09-20T13:44:15;17.60;99.90
6357;DHT22;3211;53.452;-2.264;2022-09-20T13:46:57;17.40;99.90
6357;DHT22;3211;53.452;-2.264;2022-09-20T13:49:42;17.50;99.90
6357;DHT22;3211;53.452;-2.264;2022-09-20T13:52:25;17.50;99.90
6357;DHT22;3211;53.452;-2.264;2022-09-20T13:55:21;17.50;99.90
6357;DHT22;3211;53.452;-2.264;2022-09-20T13:58:14;17.60;99.90
6357;DHT22;3211;53.452;-2.264;2022-09-20T14:01:00;17.70;99.90
6357;DHT22;3211;53.452;-2.264;2022-09-20T14:03:44;17.70;99.90
6357;DHT22;3211;53.452;-2.264;2022-09-20T14:06:26;17.70;99.90
6357;DHT22;3211;53.452;-2.264;2022-09-20T14:09:19;17.90;99.90
6357;DHT22;3211;53.452;-2.264;2022-09-20T14:12:04;17.80;99.90
6357;DHT22;3211;53.452;-2.264;2022-09-20T14:14:46;18.00;99.90
6357;DHT22;3211;53.452;-2.264;2022-09-20T14:17:31;18.00;99.90
6357;DHT22;3211;53.452;-2.264;2022-09-20T14:20:14;18.10;99.90
6357;DHT22;3211;53.452;-2.264;2022-09-20T14:22:57;18.10;99.90
6357;DHT22;3211;53.452;-2.264;2022-09-20T14:25:39;18.10;99.90
6357;DHT22;3211;53.452;-2.264;2022-09-20T14:28:24;18.40;99.90
6357;DHT22;3211;53.452;-2.264;2022-09-20T14:31:10;18.60;99.90
6357;DHT22;3211;53.452;-2.264;2022-09-20T14:33:55;18.60;99.90
6357;DHT22;3211;53.452;-2.264;2022-09-20T14:36:39;18.60;99.90
6357;DHT22;3211;53.452;-2.264;2022-09-20T14:39:21;18.70;99.90
6357;DHT22;3211;53.452;-2.264;2022-09-20T14:42:03;18.80;99.90
6357;DHT22;3211;53.452;-2.264;2022-09-20T14:44:57;19.10;99.90
6357;DHT22;3211;53.452;-2.264;2022-09-20T14:47:52;19.20;99.90
6357;DHT22;3211;53.452;-2.264;2022-09-20T14:50:36;19.20;99.90
6357;DHT22;3211;53.452;-2.264;2022-09-20T14:53:24;19.30;99.90
6357;DHT22;3211;53.452;-2.264;2022-09-20T14:56:09;19.50;99.90
6357;DHT22;3211;53.452;-2.264;2022-09-20T14:59:18;19.40;99.90
6357;DHT22;3211;53.452;-2.264;2022-09-20T15:02:07;19.90;99.90
6357;DHT22;3211;53.452;-2.264;2022-09-20T15:04:54;21.10;99.90
6357;DHT22;3211;53.452;-2.264;2022-09-20T15:07:37;22.20;99.90
6357;DHT22;3211;53.452;-2.264;2022-09-20T15:10:19;21.40;99.90
6357;DHT22;3211;53.452;-2.264;2022-09-20T15:13:01;20.60;99.90
6357;DHT22;3211;53.452;-2.264;2022-09-20T15:15:43;20.30;99.90
6357;DHT22;3211;53.452;-2.264;2022-09-20T15:18:29;20.60;99.90
6357;DHT22;3211;53.452;-2.264;2022-09-20T15:21:14;20.40;99.90
6357;DHT22;3211;53.452;-2.264;2022-09-20T15:23:55;20.10;99.90
6357;DHT22;3211;53.452;-2.264;2022-09-20T15:26:37;20.20;99.90
6357;DHT22;3211;53.452;-2.264;2022-09-20T15:29:19;24.50;98.50
6357;DHT22;3211;53.452;-2.264;2022-09-20T15:32:02;23.80;97.30
6357;DHT22;3211;53.452;-2.264;2022-09-20T15:34:46;23.00;99.40
6357;DHT22;3211;53.452;-2.264;2022-09-20T15:37:28;24.00;97.40
6357;DHT22;3211;53.452;-2.264;2022-09-20T15:40:11;24.40;96.10
6357;DHT22;3211;53.452;-2.264;2022-09-20T15:42:54;24.60;96.50
6357;DHT22;3211;53.452;-2.264;2022-09-20T15:45:46;25.50;95.50
6357;DHT22;3211;53.452;-2.264;2022-09-20T15:48:29;26.20;94.50
6357;DHT22;3211;53.452;-2.264;2022-09-20T15:51:13;29.30;92.10
6357;DHT22;3211;53.452;-2.264;2022-09-20T15:53:57;30.20;90.00
6357;DHT22;3211;53.452;-2.264;2022-09-20T15:56:40;27.00;91.90
6357;DHT22;3211;53.452;-2.264;2022-09-20T15:59:22;23.00;96.30
6357;DHT22;3211;53.452;-2.264;2022-09-20T16:02:04;21.10;99.90
6357;DHT22;3211;53.452;-2.264;2022-09-20T16:04:46;20.10;99.90
6357;DHT22;3211;53.452;-2.264;2022-09-20T16:07:32;19.50;99.90
6357;DHT22;3211;53.452;-2.264;2022-09-20T16:10:14;19.20;99.90
6357;DHT22;3211;53.452;-2.264;2022-09-20T16:12:55;19.00;99.90
6357;DHT22;3211;53.452;-2.264;2022-09-20T16:15:37;19.00;99.90
6357;DHT22;3211;53.452;-2.264;2022-09-20T16:18:19;18.80;99.90
6357;DHT22;3211;53.452;-2.264;2022-09-20T16:21:35;19.10;99.90
6357;DHT22;3211;53.452;-2.264;2022-09-20T16:24:21;18.80;99.90
6357;DHT22;3211;53.452;-2.264;2022-09-20T16:27:05;18.70;99.90
6357;DHT22;3211;53.452;-2.264;2022-09-20T16:29:48;18.60;99.90
6357;DHT22;3211;53.452;-2.264;2022-09-20T16:32:30;18.50;99.90
6357;DHT22;3211;53.452;-2.264;2022-09-20T16:35:12;18.40;99.90
6357;DHT22;3211;53.452;-2.264;2022-09-20T16:37:54;18.40;99.90
6357;DHT22;3211;53.452;-2.264;2022-09-20T16:40:38;18.40;99.90
6357;DHT22;3211;53.452;-2.264;2022-09-20T16:43:20;18.50;99.90
6357;DHT22;3211;53.452;-2.264;2022-09-20T16:46:04;18.30;99.90
6357;DHT22;3211;53.452;-2.264;2022-09-20T16:48:47;18.20;99.90
6357;DHT22;3211;53.452;-2.264;2022-09-20T16:51:33;18.30;99.90
6357;DHT22;3211;53.452;-2.264;2022-09-20T16:54:16;18.20;99.90
6357;DHT22;3211;53.452;-2.264;2022-09-20T16:57:00;18.20;99.90
6357;DHT22;3211;53.452;-2.264;2022-09-20T16:59:42;18.40;99.90
6357;DHT22;3211;53.452;-2.264;2022-09-20T17:02:26;18.30;99.90
6357;DHT22;3211;53.452;-2.264;2022-09-20T17:05:08;18.40;99.90
6357;DHT22;3211;53.452;-2.264;2022-09-20T17:07:50;18.40;99.90
6357;DHT22;3211;53.452;-2.264;2022-09-20T17:10:32;18.40;99.90
6357;DHT22;3211;53.452;-2.264;2022-09-20T17:13:15;18.30;99.90
6357;DHT22;3211;53.452;-2.264;2022-09-20T17:16:01;18.40;99.90
6357;DHT22;3211;53.452;-2.264;2022-09-20T17:18:44;18.30;99.90
6357;DHT22;3211;53.452;-2.264;2022-09-20T17:21:28;18.40;99.90
6357;DHT22;3211;53.452;-2.264;2022-09-20T17:24:11;18.30;99.90
6357;DHT22;3211;53.452;-2.264;2022-09-20T17:26:54;18.20;99.90
6357;DHT22;3211;53.452;-2.264;2022-09-20T17:29:37;18.20;99.90
6357;DHT22;3211;53.452;-2.264;2022-09-20T17:32:19;18.10;99.90
6357;DHT22;3211;53.452;-2.264;2022-09-20T17:35:01;18.00;99.90
6357;DHT22;3211;53.452;-2.264;2022-09-20T17:37:43;18.00;99.90
6357;DHT22;3211;53.452;-2.264;2022-09-20T17:40:25;17.80;99.90
6357;DHT22;3211;53.452;-2.264;2022-09-20T17:43:07;17.80;99.90
6357;DHT22;3211;53.452;-2.264;2022-09-20T17:45:50;17.60;99.90
6357;DHT22;3211;53.452;-2.264;2022-09-20T17:48:32;17.50;99.90
6357;DHT22;3211;53.452;-2.264;2022-09-20T17:51:16;17.40;99.90
6357;DHT22;3211;53.452;-2.264;2022-09-20T17:53:58;17.20;99.90
6357;DHT22;3211;53.452;-2.264;2022-09-20T17:56:41;17.20;99.90
6357;DHT22;3211;53.452;-2.264;2022-09-20T17:59:23;17.10;99.90
6357;DHT22;3211;53.452;-2.264;2022-09-20T18:02:08;17.00;99.90
6357;DHT22;3211;53.452;-2.264;2022-09-20T18:04:51;16.80;99.90
6357;DHT22;3211;53.452;-2.264;2022-09-20T18:07:33;16.70;99.90
6357;DHT22;3211;53.452;-2.264;2022-09-20T18:10:15;16.60;99.90
6357;DHT22;3211;53.452;-2.264;2022-09-20T18:12:57;16.60;99.90
6357;DHT22;3211;53.452;-2.264;2022-09-20T18:15:42;16.50;99.90
6357;DHT22;3211;53.452;-2.264;2022-09-20T18:18:26;16.30;99.90
6357;DHT22;3211;53.452;-2.264;2022-09-20T18:21:10;16.20;99.90
6357;DHT22;3211;53.452;-2.264;2022-09-20T18:23:52;16.10;99.90
6357;DHT22;3211;53.452;-2.264;2022-09-20T18:26:35;16.10;99.90
6357;DHT22;3211;53.452;-2.264;2022-09-20T18:29:17;16.00;99.90
6357;DHT22;3211;53.452;-2.264;2022-09-20T18:32:00;15.90;99.90
6357;DHT22;3211;53.452;-2.264;2022-09-20T18:34:43;15.80;99.90
6357;DHT22;3211;53.452;-2.264;2022-09-20T18:37:30;15.70;99.90
6357;DHT22;3211;53.452;-2.264;2022-09-20T18:40:15;15.60;99.90
6357;DHT22;3211;53.452;-2.264;2022-09-20T18:42:57;15.60;99.90
6357;DHT22;3211;53.452;-2.264;2022-09-20T18:45:49;15.50;99.90
6357;DHT22;3211;53.452;-2.264;2022-09-20T18:48:32;15.50;99.90
6357;DHT22;3211;53.452;-2.264;2022-09-20T18:51:16;15.40;99.90
6357;DHT22;3211;53.452;-2.264;2022-09-20T18:53:58;15.40;99.90
6357;DHT22;3211;53.452;-2.264;2022-09-20T18:56:41;15.40;99.90
6357;DHT22;3211;53.452;-2.264;2022-09-20T18:59:25;15.30;99.90
6357;DHT22;3211;53.452;-2.264;2022-09-20T19:02:22;15.20;99.90